sensor_id;sensor_type;location;lat;lon;timestamp;pressure;altitude;pressure_sealevel;temperature;humidity
18509;BME280;9383;50.928;12.116;2023-06-22T00:01:20;99132.09;;;17.17;97.27
18509;BME280;9383;50.928;12.116;2023-06-22T00:03:50;99131.47;;;17.11;97.41
18509;BME280;9383;50.928;12.116;2023-06-22T00:06:17;99131.78;;;17.07;97.65
18509;BME280;9383;50.928;12.116;2023-06-22T00:08:45;99130.91;;;17.06;98.17
18509;BME280;9383;50.928;12.116;2023-06-22T00:11:12;99114.91;;;17.05;98.32
18509;BME280;9383;50.928;12.116;2023-06-22T00:13:44;99114.81;;;17.06;98.50
18509;BME280;9383;50.928;12.116;2023-06-22T00:16:14;99114.63;;;17.09;98.89
18509;BME280;9383;50.928;12.116;2023-06-22T00:18:42;99106.88;;;17.05;98.70
18509;BME280;9383;50.928;12.116;2023-06-22T00:21:14;99112.50;;;17.00;99.00
18509;BME280;9383;50.928;12.116;2023-06-22T00:23:47;99110.09;;;16.95;99.93
18509;BME280;9383;50.928;12.116;2023-06-22T00:26:14;99113.53;;;16.97;99.76
18509;BME280;9383;50.928;12.116;2023-06-22T00:28:40;99117.84;;;17.00;99.76
18509;BME280;9383;50.928;12.116;2023-06-22T00:31:07;99118.78;;;16.99;99.51
18509;BME280;9383;50.928;12.116;2023-06-22T00:33:34;99112.75;;;16.95;99.51
18509;BME280;9383;50.928;12.116;2023-06-22T00:36:05;99117.44;;;16.92;99.72
18509;BME280;9383;50.928;12.116;2023-06-22T00:38:34;99112.06;;;16.92;99.79
18509;BME280;9383;50.928;12.116;2023-06-22T00:41:04;99123.63;;;16.92;99.16
18509;BME280;9383;50.928;12.116;2023-06-22T00:43:31;99122.09;;;16.88;99.16
18509;BME280;9383;50.928;12.116;2023-06-22T00:45:58;99120.38;;;16.87;99.34
18509;BME280;9383;50.928;12.116;2023-06-22T00:48:26;99114.06;;;16.88;99.23
18509;BME280;9383;50.928;12.116;2023-06-22T00:50:54;99110.69;;;16.84;99.03
18509;BME280;9383;50.928;12.116;2023-06-22T00:53:23;99108.38;;;16.78;99.72
18509;BME280;9383;50.928;12.116;2023-06-22T00:55:50;99110.38;;;16.74;99.53
18509;BME280;9383;50.928;12.116;2023-06-22T00:58:22;99113.38;;;16.68;99.70
18509;BME280;9383;50.928;12.116;2023-06-22T01:00:51;99110.91;;;16.65;100.00
18509;BME280;9383;50.928;12.116;2023-06-22T01:03:18;99104.00;;;16.61;100.00
18509;BME280;9383;50.928;12.116;2023-06-22T01:05:50;99091.91;;;16.54;100.00
18509;BME280;9383;50.928;12.116;2023-06-22T01:08:37;99101.97;;;16.50;100.00
18509;BME280;9383;50.928;12.116;2023-06-22T01:11:24;99099.53;;;16.45;100.00
18509;BME280;9383;50.928;12.116;2023-06-22T01:16:40;99097.31;;;16.38;100.00
18509;BME280;9383;50.928;12.116;2023-06-22T01:22:17;99098.16;;;16.38;100.00
18509;BME280;9383;50.928;12.116;2023-06-22T01:25:15;99100.06;;;16.36;100.00
18509;BME280;9383;50.928;12.116;2023-06-22T01:28:39;99088.13;;;16.26;100.00
18509;BME280;9383;50.928;12.116;2023-06-22T01:31:12;99081.41;;;16.19;100.00
18509;BME280;9383;50.928;12.116;2023-06-22T01:33:50;99082.19;;;16.21;100.00
18509;BME280;9383;50.928;12.116;2023-06-22T01:36:19;99085.66;;;16.23;100.00
18509;BME280;9383;50.928;12.116;2023-06-22T01:38:53;99098.25;;;16.21;100.00
18509;BME280;9383;50.928;12.116;2023-06-22T01:41:24;99087.44;;;16.22;100.00
18509;BME280;9383;50.928;12.116;2023-06-22T01:43:56;99106.16;;;16.22;100.00
18509;BME280;9383;50.928;12.116;2023-06-22T01:46:30;99104.38;;;16.23;100.00
18509;BME280;9383;50.928;12.116;2023-06-22T01:49:03;99105.22;;;16.23;100.00
18509;BME280;9383;50.928;12.116;2023-06-22T01:51:50;99111.75;;;16.17;100.00
18509;BME280;9383;50.928;12.116;2023-06-22T01:54:38;99101.34;;;16.13;100.00
18509;BME280;9383;50.928;12.116;2023-06-22T01:57:24;99108.50;;;16.12;100.00
18509;BME280;9383;50.928;12.116;2023-06-22T02:00:03;99109.44;;;16.11;100.00
18509;BME280;9383;50.928;12.116;2023-06-22T02:02:45;99108.56;;;16.11;100.00
18509;BME280;9383;50.928;12.116;2023-06-22T02:05:20;99096.94;;;16.12;100.00
18509;BME280;9383;50.928;12.116;2023-06-22T02:11:00;99091.22;;;16.02;100.00
18509;BME280;9383;50.928;12.116;2023-06-22T02:13:27;99095.03;;;15.98;100.00
18509;BME280;9383;50.928;12.116;2023-06-22T02:15:54;99095.19;;;15.95;100.00
18509;BME280;9383;50.928;12.116;2023-06-22T02:18:20;99090.00;;;15.92;100.00
18509;BME280;9383;50.928;12.116;2023-06-22T02:20:47;99080.47;;;15.86;100.00
18509;BME280;9383;50.928;12.116;2023-06-22T02:23:13;99085.91;;;15.84;100.00
18509;BME280;9383;50.928;12.116;2023-06-22T02:25:39;99091.09;;;15.87;100.00
18509;BME280;9383;50.928;12.116;2023-06-22T02:28:06;99090.16;;;15.88;100.00
18509;BME280;9383;50.928;12.116;2023-06-22T02:30:32;99082.38;;;15.84;100.00
18509;BME280;9383;50.928;12.116;2023-06-22T02:33:00;99080.75;;;15.81;100.00
18509;BME280;9383;50.928;12.116;2023-06-22T02:35:30;99079.09;;;15.79;100.00
18509;BME280;9383;50.928;12.116;2023-06-22T02:38:03;99084.44;;;15.79;100.00
18509;BME280;9383;50.928;12.116;2023-06-22T02:40:30;99087.19;;;15.77;100.00
18509;BME280;9383;50.928;12.116;2023-06-22T02:42:57;99089.09;;;15.75;100.00
18509;BME280;9383;50.928;12.116;2023-06-22T02:45:29;99082.19;;;15.71;100.00
18509;BME280;9383;50.928;12.116;2023-06-22T02:47:55;99086.75;;;15.69;100.00
18509;BME280;9383;50.928;12.116;2023-06-22T02:50:22;99089.44;;;15.69;100.00
18509;BME280;9383;50.928;12.116;2023-06-22T02:52:49;99087.59;;;15.69;100.00
18509;BME280;9383;50.928;12.116;2023-06-22T02:55:16;99085.94;;;15.67;100.00
18509;BME280;9383;50.928;12.116;2023-06-22T02:57:43;99075.44;;;15.64;100.00
18509;BME280;9383;50.928;12.116;2023-06-22T03:00:11;99082.50;;;15.65;100.00
18509;BME280;9383;50.928;12.116;2023-06-22T03:02:45;99079.75;;;15.66;100.00
18509;BME280;9383;50.928;12.116;2023-06-22T03:05:12;99069.16;;;15.65;100.00
18509;BME280;9383;50.928;12.116;2023-06-22T03:07:43;99069.06;;;15.66;100.00
18509;BME280;9383;50.928;12.116;2023-06-22T03:10:10;99071.69;;;15.68;100.00
18509;BME280;9383;50.928;12.116;2023-06-22T03:12:39;99084.88;;;15.71;100.00
18509;BME280;9383;50.928;12.116;2023-06-22T03:15:07;99089.09;;;15.75;100.00
18509;BME280;9383;50.928;12.116;2023-06-22T03:17:34;99087.19;;;15.77;100.00
18509;BME280;9383;50.928;12.116;2023-06-22T03:20:02;99095.13;;;15.79;100.00
18509;BME280;9383;50.928;12.116;2023-06-22T03:22:41;99088.91;;;15.78;100.00
18509;BME280;9383;50.928;12.116;2023-06-22T03:25:09;99082.72;;;15.78;100.00
18509;BME280;9383;50.928;12.116;2023-06-22T03:27:37;99080.81;;;15.80;100.00
18509;BME280;9383;50.928;12.116;2023-06-22T03:30:04;99093.16;;;15.82;100.00
18509;BME280;9383;50.928;12.116;2023-06-22T03:32:31;99103.63;;;15.87;100.00
18509;BME280;9383;50.928;12.116;2023-06-22T03:34:58;99113.28;;;15.89;100.00
18509;BME280;9383;50.928;12.116;2023-06-22T03:37:26;99124.75;;;15.92;100.00
18509;BME280;9383;50.928;12.116;2023-06-22T03:39:52;99127.28;;;15.95;100.00
18509;BME280;9383;50.928;12.116;2023-06-22T03:42:19;99139.72;;;15.96;100.00
18509;BME280;9383;50.928;12.116;2023-06-22T03:44:45;99146.59;;;16.00;100.00
18509;BME280;9383;50.928;12.116;2023-06-22T03:47:12;99155.34;;;16.03;100.00
18509;BME280;9383;50.928;12.116;2023-06-22T03:49:39;99166.72;;;16.07;100.00
18509;BME280;9383;50.928;12.116;2023-06-22T03:52:06;99180.69;;;16.12;100.00
18509;BME280;9383;50.928;12.116;2023-06-22T03:54:32;99183.19;;;16.15;100.00
18509;BME280;9383;50.928;12.116;2023-06-22T03:56:59;99188.25;;;16.22;100.00
18509;BME280;9383;50.928;12.116;2023-06-22T03:59:26;99202.03;;;16.30;100.00
18509;BME280;9383;50.928;12.116;2023-06-22T04:01:52;99212.50;;;16.35;100.00
18509;BME280;9383;50.928;12.116;2023-06-22T04:04:19;99220.28;;;16.39;100.00
18509;BME280;9383;50.928;12.116;2023-06-22T04:06:45;99236.84;;;16.46;100.00
18509;BME280;9383;50.928;12.116;2023-06-22T04:09:11;99233.84;;;16.52;100.00
18509;BME280;9383;50.928;12.116;2023-06-22T04:11:38;99234.44;;;16.57;100.00
18509;BME280;9383;50.928;12.116;2023-06-22T04:14:04;99219.03;;;16.63;100.00
18509;BME280;9383;50.928;12.116;2023-06-22T04:16:31;99220.47;;;16.68;100.00
18509;BME280;9383;50.928;12.116;2023-06-22T04:18:57;99207.63;;;16.75;100.00
18509;BME280;9383;50.928;12.116;2023-06-22T04:21:24;99210.91;;;16.80;100.00
18509;BME280;9383;50.928;12.116;2023-06-22T04:23:51;99208.72;;;16.87;100.00
18509;BME280;9383;50.928;12.116;2023-06-22T04:26:17;99207.53;;;16.93;100.00
18509;BME280;9383;50.928;12.116;2023-06-22T04:28:47;99197.28;;;17.01;100.00
18509;BME280;9383;50.928;12.116;2023-06-22T04:31:22;99193.19;;;17.10;100.00
18509;BME280;9383;50.928;12.116;2023-06-22T04:34:00;99191.88;;;17.17;100.00
18509;BME280;9383;50.928;12.116;2023-06-22T04:36:40;99194.97;;;17.25;100.00
18509;BME280;9383;50.928;12.116;2023-06-22T04:39:10;99185.63;;;17.33;100.00
18509;BME280;9383;50.928;12.116;2023-06-22T04:41:40;99179.69;;;17.42;100.00
18509;BME280;9383;50.928;12.116;2023-06-22T04:44:11;99177.44;;;17.50;100.00
18509;BME280;9383;50.928;12.116;2023-06-22T04:46:38;99175.06;;;17.60;100.00
18509;BME280;9383;50.928;12.116;2023-06-22T04:49:09;99160.22;;;17.69;100.00
18509;BME280;9383;50.928;12.116;2023-06-22T04:51:40;99150.56;;;17.81;100.00
18509;BME280;9383;50.928;12.116;2023-06-22T04:54:08;99111.31;;;17.94;100.00
18509;BME280;9383;50.928;12.116;2023-06-22T04:56:35;99080.56;;;18.14;100.00
18509;BME280;9383;50.928;12.116;2023-06-22T04:59:04;99059.63;;;18.34;100.00
18509;BME280;9383;50.928;12.116;2023-06-22T05:01:31;99055.94;;;18.50;100.00
18509;BME280;9383;50.928;12.116;2023-06-22T05:03:58;99056.94;;;18.62;100.00
18509;BME280;9383;50.928;12.116;2023-06-22T05:06:27;99065.25;;;18.72;100.00
18509;BME280;9383;50.928;12.116;2023-06-22T05:08:55;99061.94;;;18.81;100.00
18509;BME280;9383;50.928;12.116;2023-06-22T05:11:29;99048.63;;;18.92;100.00
18509;BME280;9383;50.928;12.116;2023-06-22T05:13:56;99041.78;;;19.01;100.00
18509;BME280;9383;50.928;12.116;2023-06-22T05:16:23;99035.06;;;19.08;100.00
18509;BME280;9383;50.928;12.116;2023-06-22T05:18:52;99021.94;;;19.17;100.00
18509;BME280;9383;50.928;12.116;2023-06-22T05:21:25;99007.00;;;19.25;100.00
18509;BME280;9383;50.928;12.116;2023-06-22T05:23:53;99001.00;;;19.35;100.00
18509;BME280;9383;50.928;12.116;2023-06-22T05:26:21;98987.84;;;19.43;100.00
18509;BME280;9383;50.928;12.116;2023-06-22T05:28:48;98988.06;;;19.53;100.00
18509;BME280;9383;50.928;12.116;2023-06-22T05:31:15;98967.72;;;19.62;100.00
18509;BME280;9383;50.928;12.116;2023-06-22T05:33:43;98961.78;;;19.70;100.00
18509;BME280;9383;50.928;12.116;2023-06-22T05:36:10;98971.00;;;19.78;100.00
18509;BME280;9383;50.928;12.116;2023-06-22T05:38:38;98978.75;;;19.83;100.00
18509;BME280;9383;50.928;12.116;2023-06-22T05:41:05;98992.50;;;19.91;100.00
18509;BME280;9383;50.928;12.116;2023-06-22T05:43:32;98999.16;;;19.99;100.00
18509;BME280;9383;50.928;12.116;2023-06-22T05:46:00;99005.69;;;20.07;100.00
18509;BME280;9383;50.928;12.116;2023-06-22T05:48:28;99015.91;;;20.15;100.00
18509;BME280;9383;50.928;12.116;2023-06-22T05:50:55;99027.72;;;20.26;100.00
18509;BME280;9383;50.928;12.116;2023-06-22T05:53:22;99033.06;;;20.38;100.00
18509;BME280;9383;50.928;12.116;2023-06-22T05:55:48;99038.38;;;20.51;100.00
18509;BME280;9383;50.928;12.116;2023-06-22T05:58:15;99035.88;;;20.61;100.00
18509;BME280;9383;50.928;12.116;2023-06-22T06:00:42;99038.06;;;20.67;100.00
18509;BME280;9383;50.928;12.116;2023-06-22T06:03:10;99038.47;;;20.74;100.00
18509;BME280;9383;50.928;12.116;2023-06-22T06:05:37;99037.06;;;20.82;100.00
18509;BME280;9383;50.928;12.116;2023-06-22T06:08:06;99042.72;;;20.90;100.00
18509;BME280;9383;50.928;12.116;2023-06-22T06:10:34;99053.66;;;21.00;100.00
18509;BME280;9383;50.928;12.116;2023-06-22T06:13:01;99057.34;;;21.10;100.00
18509;BME280;9383;50.928;12.116;2023-06-22T06:15:29;99065.38;;;21.23;100.00
18509;BME280;9383;50.928;12.116;2023-06-22T06:17:55;99063.53;;;21.35;100.00
18509;BME280;9383;50.928;12.116;2023-06-22T06:20:24;99046.91;;;21.53;100.00
18509;BME280;9383;50.928;12.116;2023-06-22T06:22:51;99055.25;;;21.72;100.00
18509;BME280;9383;50.928;12.116;2023-06-22T06:25:18;99056.50;;;21.91;100.00
18509;BME280;9383;50.928;12.116;2023-06-22T06:27:46;99053.16;;;22.10;100.00
18509;BME280;9383;50.928;12.116;2023-06-22T06:30:14;99067.28;;;22.25;100.00
18509;BME280;9383;50.928;12.116;2023-06-22T06:32:42;99059.59;;;22.42;100.00
18509;BME280;9383;50.928;12.116;2023-06-22T06:35:10;99055.19;;;22.52;100.00
18509;BME280;9383;50.928;12.116;2023-06-22T06:37:38;99052.84;;;22.59;100.00
18509;BME280;9383;50.928;12.116;2023-06-22T06:40:06;99059.19;;;22.69;100.00
18509;BME280;9383;50.928;12.116;2023-06-22T06:42:44;99058.88;;;22.84;100.00
18509;BME280;9383;50.928;12.116;2023-06-22T06:45:16;99061.88;;;23.02;100.00
18509;BME280;9383;50.928;12.116;2023-06-22T06:47:43;99057.69;;;23.19;100.00
18509;BME280;9383;50.928;12.116;2023-06-22T06:50:10;99057.66;;;23.30;99.06
18509;BME280;9383;50.928;12.116;2023-06-22T06:52:36;99056.47;;;23.44;98.26
18509;BME280;9383;50.928;12.116;2023-06-22T06:55:04;99060.81;;;23.57;97.60
18509;BME280;9383;50.928;12.116;2023-06-22T06:57:35;99055.44;;;23.67;96.10
18509;BME280;9383;50.928;12.116;2023-06-22T07:00:05;99057.63;;;23.73;93.95
18509;BME280;9383;50.928;12.116;2023-06-22T07:02:43;99055.94;;;23.82;93.18
18509;BME280;9383;50.928;12.116;2023-06-22T07:05:10;99053.81;;;23.85;90.91
18509;BME280;9383;50.928;12.116;2023-06-22T07:07:37;99050.72;;;23.90;90.31
18509;BME280;9383;50.928;12.116;2023-06-22T07:10:05;99041.19;;;23.96;90.30
18509;BME280;9383;50.928;12.116;2023-06-22T07:12:32;99044.94;;;24.05;90.08
18509;BME280;9383;50.928;12.116;2023-06-22T07:15:06;99044.84;;;24.16;89.04
18509;BME280;9383;50.928;12.116;2023-06-22T07:17:37;99042.00;;;24.27;87.92
18509;BME280;9383;50.928;12.116;2023-06-22T07:20:04;99039.03;;;24.40;87.79
18509;BME280;9383;50.928;12.116;2023-06-22T07:22:39;99037.47;;;24.57;87.34
18509;BME280;9383;50.928;12.116;2023-06-22T07:25:06;99040.47;;;24.74;86.10
18509;BME280;9383;50.928;12.116;2023-06-22T07:27:43;99045.34;;;24.90;83.65
18509;BME280;9383;50.928;12.116;2023-06-22T07:30:10;99032.94;;;25.07;83.85
18509;BME280;9383;50.928;12.116;2023-06-22T07:32:37;99029.88;;;25.20;81.33
18509;BME280;9383;50.928;12.116;2023-06-22T07:35:04;99026.00;;;25.33;80.57
18509;BME280;9383;50.928;12.116;2023-06-22T07:37:31;99030.13;;;25.47;79.31
18509;BME280;9383;50.928;12.116;2023-06-22T07:39:59;99025.94;;;25.62;78.84
18509;BME280;9383;50.928;12.116;2023-06-22T07:42:26;99020.91;;;25.77;76.72
18509;BME280;9383;50.928;12.116;2023-06-22T07:44:54;99037.13;;;25.87;75.05
18509;BME280;9383;50.928;12.116;2023-06-22T07:47:21;99020.94;;;25.95;73.49
18509;BME280;9383;50.928;12.116;2023-06-22T07:49:51;99014.69;;;26.13;74.09
18509;BME280;9383;50.928;12.116;2023-06-22T07:52:21;99010.63;;;26.27;72.67
18509;BME280;9383;50.928;12.116;2023-06-22T07:54:47;98999.69;;;26.37;72.84
18509;BME280;9383;50.928;12.116;2023-06-22T07:57:14;99008.09;;;26.44;72.14
18509;BME280;9383;50.928;12.116;2023-06-22T07:59:40;99001.16;;;26.49;71.95
18509;BME280;9383;50.928;12.116;2023-06-22T08:02:07;98973.06;;;26.40;71.19
18509;BME280;9383;50.928;12.116;2023-06-22T08:04:35;98996.38;;;26.61;68.76
18509;BME280;9383;50.928;12.116;2023-06-22T08:07:02;98993.69;;;26.69;68.90
18509;BME280;9383;50.928;12.116;2023-06-22T08:09:29;99000.47;;;26.83;69.28
18509;BME280;9383;50.928;12.116;2023-06-22T08:11:56;98991.75;;;26.98;69.09
18509;BME280;9383;50.928;12.116;2023-06-22T08:14:26;98990.81;;;27.07;68.01
18509;BME280;9383;50.928;12.116;2023-06-22T08:16:53;98993.91;;;27.13;67.52
18509;BME280;9383;50.928;12.116;2023-06-22T08:19:20;98991.56;;;27.18;66.76
18509;BME280;9383;50.928;12.116;2023-06-22T08:21:46;98994.19;;;27.28;67.19
18509;BME280;9383;50.928;12.116;2023-06-22T08:24:12;98986.38;;;27.33;65.02
18509;BME280;9383;50.928;12.116;2023-06-22T08:26:39;98985.41;;;27.42;65.22
18509;BME280;9383;50.928;12.116;2023-06-22T08:29:06;98976.13;;;27.53;65.54
18509;BME280;9383;50.928;12.116;2023-06-22T08:31:32;98978.22;;;27.59;61.66
18509;BME280;9383;50.928;12.116;2023-06-22T08:34:01;98970.25;;;27.66;63.30
18509;BME280;9383;50.928;12.116;2023-06-22T08:36:28;98977.94;;;27.79;61.96
18509;BME280;9383;50.928;12.116;2023-06-22T08:38:59;98969.31;;;27.92;61.50
18509;BME280;9383;50.928;12.116;2023-06-22T08:41:27;98975.28;;;28.04;59.80
18509;BME280;9383;50.928;12.116;2023-06-22T08:43:54;98976.00;;;28.14;59.47
18509;BME280;9383;50.928;12.116;2023-06-22T08:46:21;98972.81;;;28.19;56.97
18509;BME280;9383;50.928;12.116;2023-06-22T08:48:50;98970.25;;;28.17;57.01
18509;BME280;9383;50.928;12.116;2023-06-22T08:51:17;98978.44;;;28.26;58.01
18509;BME280;9383;50.928;12.116;2023-06-22T08:53:43;98980.00;;;28.28;57.64
18509;BME280;9383;50.928;12.116;2023-06-22T08:56:11;98976.94;;;28.40;58.40
18509;BME280;9383;50.928;12.116;2023-06-22T08:58:37;98972.88;;;28.52;57.71
18509;BME280;9383;50.928;12.116;2023-06-22T09:01:04;98972.34;;;28.57;55.01
18509;BME280;9383;50.928;12.116;2023-06-22T09:03:30;98968.78;;;28.64;55.89
18509;BME280;9383;50.928;12.116;2023-06-22T09:05:59;98968.75;;;28.73;56.23
18509;BME280;9383;50.928;12.116;2023-06-22T09:08:25;98961.78;;;28.78;57.14
18509;BME280;9383;50.928;12.116;2023-06-22T09:10:52;98953.44;;;28.88;56.57
18509;BME280;9383;50.928;12.116;2023-06-22T09:13:19;98951.06;;;28.94;55.64
18509;BME280;9383;50.928;12.116;2023-06-22T09:15:45;98945.09;;;28.98;55.37
18509;BME280;9383;50.928;12.116;2023-06-22T09:18:12;98952.91;;;29.10;56.22
18509;BME280;9383;50.928;12.116;2023-06-22T09:20:39;98937.69;;;29.24;55.94
18509;BME280;9383;50.928;12.116;2023-06-22T09:23:06;98941.22;;;29.41;55.37
18509;BME280;9383;50.928;12.116;2023-06-22T09:25:33;98933.19;;;29.47;55.05
18509;BME280;9383;50.928;12.116;2023-06-22T09:27:59;98940.19;;;29.58;55.31
18509;BME280;9383;50.928;12.116;2023-06-22T09:30:25;98934.00;;;29.56;54.55
18509;BME280;9383;50.928;12.116;2023-06-22T09:32:52;98940.31;;;29.65;54.23
18509;BME280;9383;50.928;12.116;2023-06-22T09:35:19;98946.22;;;29.77;52.76
18509;BME280;9383;50.928;12.116;2023-06-22T09:37:46;98933.91;;;29.81;53.25
18509;BME280;9383;50.928;12.116;2023-06-22T09:40:12;98920.97;;;29.75;53.14
18509;BME280;9383;50.928;12.116;2023-06-22T09:42:42;98923.28;;;29.86;53.61
18509;BME280;9383;50.928;12.116;2023-06-22T09:45:09;98929.38;;;29.97;53.45
18509;BME280;9383;50.928;12.116;2023-06-22T09:47:35;98928.00;;;30.01;52.73
18509;BME280;9383;50.928;12.116;2023-06-22T09:50:03;98929.69;;;30.02;49.93
18509;BME280;9383;50.928;12.116;2023-06-22T09:52:29;98929.97;;;30.15;51.04
18509;BME280;9383;50.928;12.116;2023-06-22T09:54:56;98931.13;;;30.21;50.75
18509;BME280;9383;50.928;12.116;2023-06-22T09:57:22;98923.72;;;30.30;51.19
18509;BME280;9383;50.928;12.116;2023-06-22T09:59:49;98919.88;;;30.39;51.25
18509;BME280;9383;50.928;12.116;2023-06-22T10:02:15;98918.69;;;30.42;49.96
18509;BME280;9383;50.928;12.116;2023-06-22T10:04:41;98906.16;;;30.48;50.08
18509;BME280;9383;50.928;12.116;2023-06-22T10:07:08;98907.06;;;30.63;50.68
18509;BME280;9383;50.928;12.116;2023-06-22T10:09:34;98913.22;;;30.65;49.85
18509;BME280;9383;50.928;12.116;2023-06-22T10:12:01;98916.59;;;30.67;49.74
18509;BME280;9383;50.928;12.116;2023-06-22T10:14:27;98898.50;;;30.66;49.18
18509;BME280;9383;50.928;12.116;2023-06-22T10:16:56;98901.50;;;30.71;48.59
18509;BME280;9383;50.928;12.116;2023-06-22T10:19:22;98897.00;;;30.79;49.47
18509;BME280;9383;50.928;12.116;2023-06-22T10:21:49;98895.31;;;30.78;49.29
18509;BME280;9383;50.928;12.116;2023-06-22T10:24:15;98898.81;;;30.86;49.56
18509;BME280;9383;50.928;12.116;2023-06-22T10:26:42;98892.69;;;30.99;49.73
18509;BME280;9383;50.928;12.116;2023-06-22T10:29:09;98873.91;;;31.11;48.32
18509;BME280;9383;50.928;12.116;2023-06-22T10:31:36;98882.16;;;31.26;48.69
18509;BME280;9383;50.928;12.116;2023-06-22T10:34:02;98865.81;;;31.33;47.71
18509;BME280;9383;50.928;12.116;2023-06-22T10:36:29;98866.72;;;31.40;47.89
18509;BME280;9383;50.928;12.116;2023-06-22T10:38:55;98881.09;;;31.42;46.04
18509;BME280;9383;50.928;12.116;2023-06-22T10:41:22;98868.81;;;31.38;46.45
18509;BME280;9383;50.928;12.116;2023-06-22T10:43:48;98872.72;;;31.29;46.14
18509;BME280;9383;50.928;12.116;2023-06-22T10:46:15;98870.16;;;31.27;46.77
18509;BME280;9383;50.928;12.116;2023-06-22T10:48:41;98868.44;;;31.26;46.90
18509;BME280;9383;50.928;12.116;2023-06-22T10:51:07;98874.50;;;31.22;47.28
18509;BME280;9383;50.928;12.116;2023-06-22T10:53:34;98870.53;;;31.24;47.26
18509;BME280;9383;50.928;12.116;2023-06-22T10:56:00;98857.03;;;31.23;46.01
18509;BME280;9383;50.928;12.116;2023-06-22T10:58:27;98859.38;;;31.26;47.31
18509;BME280;9383;50.928;12.116;2023-06-22T11:00:53;98856.81;;;31.39;47.08
18509;BME280;9383;50.928;12.116;2023-06-22T11:03:20;98854.28;;;31.38;46.42
18509;BME280;9383;50.928;12.116;2023-06-22T11:05:46;98853.97;;;31.33;45.84
18509;BME280;9383;50.928;12.116;2023-06-22T11:08:14;98847.75;;;31.39;45.41
18509;BME280;9383;50.928;12.116;2023-06-22T11:10:41;98856.53;;;31.49;46.22
18509;BME280;9383;50.928;12.116;2023-06-22T11:13:07;98846.78;;;31.47;45.60
18509;BME280;9383;50.928;12.116;2023-06-22T11:15:36;98849.53;;;31.47;45.56
18509;BME280;9383;50.928;12.116;2023-06-22T11:18:03;98848.31;;;31.49;45.08
18509;BME280;9383;50.928;12.116;2023-06-22T11:20:31;98840.66;;;31.44;45.49
18509;BME280;9383;50.928;12.116;2023-06-22T11:23:00;98839.88;;;31.51;45.76
18509;BME280;9383;50.928;12.116;2023-06-22T11:25:27;98830.91;;;31.57;44.93
18509;BME280;9383;50.928;12.116;2023-06-22T11:27:55;98833.31;;;31.67;46.35
18509;BME280;9383;50.928;12.116;2023-06-22T11:30:21;98821.84;;;31.78;45.20
18509;BME280;9383;50.928;12.116;2023-06-22T11:32:48;98821.56;;;31.88;45.19
18509;BME280;9383;50.928;12.116;2023-06-22T11:35:14;98826.03;;;31.96;44.63
18509;BME280;9383;50.928;12.116;2023-06-22T11:37:41;98823.63;;;31.86;44.00
18509;BME280;9383;50.928;12.116;2023-06-22T11:40:09;98817.50;;;31.84;43.91
18509;BME280;9383;50.928;12.116;2023-06-22T11:42:35;98808.50;;;31.90;43.57
18509;BME280;9383;50.928;12.116;2023-06-22T11:45:04;98812.63;;;32.01;42.85
18509;BME280;9383;50.928;12.116;2023-06-22T11:47:31;98806.97;;;32.09;42.80
18509;BME280;9383;50.928;12.116;2023-06-22T11:49:57;98802.53;;;32.08;42.89
18509;BME280;9383;50.928;12.116;2023-06-22T11:52:24;98797.59;;;31.97;42.14
18509;BME280;9383;50.928;12.116;2023-06-22T11:54:50;98795.81;;;31.89;42.68
18509;BME280;9383;50.928;12.116;2023-06-22T11:57:17;98788.88;;;31.87;42.85
18509;BME280;9383;50.928;12.116;2023-06-22T11:59:43;98786.72;;;31.82;43.37
18509;BME280;9383;50.928;12.116;2023-06-22T12:02:10;98779.53;;;31.81;43.05
18509;BME280;9383;50.928;12.116;2023-06-22T12:04:36;98789.88;;;31.64;41.07
18509;BME280;9383;50.928;12.116;2023-06-22T12:07:04;98781.44;;;31.43;41.86
18509;BME280;9383;50.928;12.116;2023-06-22T12:09:30;98773.78;;;31.39;41.50
18509;BME280;9383;50.928;12.116;2023-06-22T12:11:57;98769.84;;;31.41;42.21
18509;BME280;9383;50.928;12.116;2023-06-22T12:14:23;98767.19;;;31.33;41.88
18509;BME280;9383;50.928;12.116;2023-06-22T12:16:49;98765.22;;;31.27;41.66
18509;BME280;9383;50.928;12.116;2023-06-22T12:19:16;98763.16;;;31.29;41.97
18509;BME280;9383;50.928;12.116;2023-06-22T12:21:42;98755.66;;;31.38;41.90
18509;BME280;9383;50.928;12.116;2023-06-22T12:24:12;98750.19;;;31.38;41.51
18509;BME280;9383;50.928;12.116;2023-06-22T12:26:39;98749.78;;;31.41;41.89
18509;BME280;9383;50.928;12.116;2023-06-22T12:29:05;98746.25;;;31.47;41.82
18509;BME280;9383;50.928;12.116;2023-06-22T12:31:31;98738.44;;;31.44;42.47
18509;BME280;9383;50.928;12.116;2023-06-22T12:33:58;98739.47;;;31.43;41.73
18509;BME280;9383;50.928;12.116;2023-06-22T12:36:25;98744.78;;;31.44;41.06
18509;BME280;9383;50.928;12.116;2023-06-22T12:38:51;98728.53;;;31.43;40.98
18509;BME280;9383;50.928;12.116;2023-06-22T12:41:19;98735.50;;;31.46;41.71
18509;BME280;9383;50.928;12.116;2023-06-22T12:43:46;98725.13;;;31.41;41.08
18509;BME280;9383;50.928;12.116;2023-06-22T12:46:13;98728.94;;;31.40;41.51
18509;BME280;9383;50.928;12.116;2023-06-22T12:48:39;98728.47;;;31.36;41.34
18509;BME280;9383;50.928;12.116;2023-06-22T12:51:09;98719.19;;;31.37;41.96
18509;BME280;9383;50.928;12.116;2023-06-22T12:53:36;98707.84;;;31.40;42.02
18509;BME280;9383;50.928;12.116;2023-06-22T12:56:02;98710.00;;;31.45;42.25
18509;BME280;9383;50.928;12.116;2023-06-22T12:58:29;98704.91;;;31.42;40.95
18509;BME280;9383;50.928;12.116;2023-06-22T13:00:55;98709.56;;;31.41;42.46
18509;BME280;9383;50.928;12.116;2023-06-22T13:03:22;98702.44;;;31.47;41.98
18509;BME280;9383;50.928;12.116;2023-06-22T13:05:51;98708.59;;;31.49;42.45
18509;BME280;9383;50.928;12.116;2023-06-22T13:08:18;98696.59;;;31.50;41.76
18509;BME280;9383;50.928;12.116;2023-06-22T13:10:44;98688.03;;;31.38;41.60